Switzerland, South Carolina
Current Conditions -  °F | °C
As of 1:44 PM on Sunday 23 Nov 2014 (Local Time) from KNBC Reporting Station
Moderate Rain Moderate Rain  
Wind Chill: 66°   Ceiling: 500
Heat Index: 66°   Visibility: 2mi
Dew Point: 64°   Wind: 13mph
Humidity: 93%   Direction: 110°ESE
Pressure: 29.92"   Gusts: NA
Location:  32.4773°N, 80.9264°W
Report Text: KNBC 231844Z AUTO 11011KT 2SM RA BR BKN005 OVC011 19/18 A2992 RMK AO2 P0014 T01890178 $
Loading
Personal Weather Stations






























Interactive Weather Map New forecast layout! Learn more

10-Day Weather Forecast

Advertisements
Track Severe Weather on mobile